sensor_id;sensor_type;location;lat;lon;timestamp;pressure;altitude;pressure_sealevel;temperature;humidity
50696;BME280;36665;51.786;21.594;2023-03-20T00:03:05;92942.82;;;2.37;61.87
50696;BME280;36665;51.786;21.594;2023-03-20T00:19:55;92802.40;;;1.99;61.90
50696;BME280;36665;51.786;21.594;2023-03-20T00:28:43;92789.59;;;1.95;61.88
50696;BME280;36665;51.786;21.594;2023-03-20T00:37:08;92797.81;;;1.98;61.89
50696;BME280;36665;51.786;21.594;2023-03-20T00:45:34;92794.83;;;1.97;61.93
50696;BME280;36665;51.786;21.594;2023-03-20T00:53:58;92773.02;;;1.92;61.85
50696;BME280;36665;51.786;21.594;2023-03-20T01:02:23;92762.94;;;1.89;61.87
50696;BME280;36665;51.786;21.594;2023-03-20T01:10:52;92763.38;;;1.89;61.61
50696;BME280;36665;51.786;21.594;2023-03-20T01:19:17;92741.29;;;1.83;61.71
50696;BME280;36665;51.786;21.594;2023-03-20T01:27:42;92673.15;;;1.65;61.76
50696;BME280;36665;51.786;21.594;2023-03-20T01:36:10;92649.19;;;1.58;61.73
50696;BME280;36665;51.786;21.594;2023-03-20T01:44:35;92632.82;;;1.54;61.85
50696;BME280;36665;51.786;21.594;2023-03-20T01:53:09;92593.45;;;1.43;61.91
50696;BME280;36665;51.786;21.594;2023-03-20T02:01:40;92575.68;;;1.38;61.74
50696;BME280;36665;51.786;21.594;2023-03-20T02:10:09;92573.88;;;1.39;61.75
50696;BME280;36665;51.786;21.594;2023-03-20T02:18:42;92573.69;;;1.39;61.82
50696;BME280;36665;51.786;21.594;2023-03-20T02:27:31;92525.35;;;1.27;61.83
50696;BME280;36665;51.786;21.594;2023-03-20T02:44:36;92502.09;;;1.19;61.76
50696;BME280;36665;51.786;21.594;2023-03-20T03:01:55;92485.55;;;1.15;62.00
50696;BME280;36665;51.786;21.594;2023-03-20T03:10:43;92465.38;;;1.10;61.75
50696;BME280;36665;51.786;21.594;2023-03-20T03:19:12;92415.51;;;0.95;61.70
50696;BME280;36665;51.786;21.594;2023-03-20T03:27:40;92372.10;;;0.84;61.63
50696;BME280;36665;51.786;21.594;2023-03-20T03:36:08;92368.50;;;0.83;61.65
50696;BME280;36665;51.786;21.594;2023-03-20T03:53:43;92424.75;;;0.98;61.76
50696;BME280;36665;51.786;21.594;2023-03-20T04:02:11;92392.45;;;0.89;61.75
50696;BME280;36665;51.786;21.594;2023-03-20T04:10:34;92362.80;;;0.82;61.67
50696;BME280;36665;51.786;21.594;2023-03-20T04:18:57;92350.19;;;0.78;61.74
50696;BME280;36665;51.786;21.594;2023-03-20T04:27:21;92310.03;;;0.66;61.62
50696;BME280;36665;51.786;21.594;2023-03-20T04:35:45;92253.03;;;0.51;61.68
50696;BME280;36665;51.786;21.594;2023-03-20T04:44:12;92233.20;;;0.45;61.63
50696;BME280;36665;51.786;21.594;2023-03-20T04:52:38;92253.33;;;0.51;61.59
50696;BME280;36665;51.786;21.594;2023-03-20T05:01:01;92271.54;;;0.56;61.83
50696;BME280;36665;51.786;21.594;2023-03-20T05:09:25;92299.21;;;0.64;61.93
50696;BME280;36665;51.786;21.594;2023-03-20T05:17:49;92339.85;;;0.76;61.94
50696;BME280;36665;51.786;21.594;2023-03-20T05:26:26;92404.52;;;0.94;62.03
50696;BME280;36665;51.786;21.594;2023-03-20T05:35:04;92456.11;;;1.09;61.99
50696;BME280;36665;51.786;21.594;2023-03-20T05:43:47;92569.94;;;1.40;62.27
50696;BME280;36665;51.786;21.594;2023-03-20T05:52:31;92725.45;;;1.83;62.48
50696;BME280;36665;51.786;21.594;2023-03-20T06:01:23;92877.98;;;2.24;62.50
50696;BME280;36665;51.786;21.594;2023-03-20T06:10:00;93038.94;;;2.67;62.70
50696;BME280;36665;51.786;21.594;2023-03-20T06:18:23;93154.55;;;2.99;62.92
50696;BME280;36665;51.786;21.594;2023-03-20T06:26:48;93345.84;;;3.52;63.12
50696;BME280;36665;51.786;21.594;2023-03-20T06:35:13;93586.42;;;4.17;63.08
50696;BME280;36665;51.786;21.594;2023-03-20T06:43:39;93848.42;;;4.87;63.20
50696;BME280;36665;51.786;21.594;2023-03-20T06:52:05;94112.56;;;5.57;63.61
50696;BME280;36665;51.786;21.594;2023-03-20T07:00:29;94395.94;;;6.34;63.81
50696;BME280;36665;51.786;21.594;2023-03-20T07:08:52;94734.85;;;7.24;64.14
50696;BME280;36665;51.786;21.594;2023-03-20T07:17:16;95068.36;;;8.11;64.57
50696;BME280;36665;51.786;21.594;2023-03-20T07:25:39;95333.86;;;8.80;64.64
50696;BME280;36665;51.786;21.594;2023-03-20T07:34:09;95575.31;;;9.41;64.72
50696;BME280;36665;51.786;21.594;2023-03-20T07:42:34;95859.98;;;10.15;65.02
50696;BME280;36665;51.786;21.594;2023-03-20T07:51:06;96107.59;;;10.78;65.07
50696;BME280;36665;51.786;21.594;2023-03-20T07:59:30;96321.74;;;11.31;65.51
50696;BME280;36665;51.786;21.594;2023-03-20T08:07:53;96514.98;;;11.79;65.59
50696;BME280;36665;51.786;21.594;2023-03-20T08:16:16;96701.70;;;12.26;65.74
50696;BME280;36665;51.786;21.594;2023-03-20T08:24:40;96887.87;;;12.74;65.77
50696;BME280;36665;51.786;21.594;2023-03-20T08:33:03;97096.48;;;13.26;65.89
50696;BME280;36665;51.786;21.594;2023-03-20T08:41:26;97275.54;;;13.69;65.87
50696;BME280;36665;51.786;21.594;2023-03-20T08:49:49;97402.83;;;14.00;65.99
50696;BME280;36665;51.786;21.594;2023-03-20T08:58:12;97512.40;;;14.27;66.09
50696;BME280;36665;51.786;21.594;2023-03-20T09:06:36;97652.98;;;14.61;66.24
50696;BME280;36665;51.786;21.594;2023-03-20T09:14:59;97772.27;;;14.89;66.17
50696;BME280;36665;51.786;21.594;2023-03-20T09:23:23;97851.66;;;15.08;66.52
50696;BME280;36665;51.786;21.594;2023-03-20T09:31:46;97851.06;;;15.07;66.34
50696;BME280;36665;51.786;21.594;2023-03-20T09:40:40;97870.36;;;15.11;66.33
50696;BME280;36665;51.786;21.594;2023-03-20T09:57:56;97803.54;;;14.95;66.13
50696;BME280;36665;51.786;21.594;2023-03-20T10:06:20;97712.38;;;14.72;66.35
50696;BME280;36665;51.786;21.594;2023-03-20T10:15:23;97671.88;;;14.62;66.17
50696;BME280;36665;51.786;21.594;2023-03-20T10:24:03;97698.24;;;14.68;66.13
50696;BME280;36665;51.786;21.594;2023-03-20T10:32:46;97775.42;;;14.88;66.17
50696;BME280;36665;51.786;21.594;2023-03-20T10:41:17;97869.61;;;15.10;66.36
50696;BME280;36665;51.786;21.594;2023-03-20T10:50:03;97946.09;;;15.28;66.02
50696;BME280;36665;51.786;21.594;2023-03-20T10:58:31;97977.04;;;15.36;66.13
50696;BME280;36665;51.786;21.594;2023-03-20T11:07:11;97877.98;;;15.11;66.29
50696;BME280;36665;51.786;21.594;2023-03-20T11:15:36;97861.22;;;15.08;66.29
50696;BME280;36665;51.786;21.594;2023-03-20T11:24:00;97885.89;;;15.13;66.10
50696;BME280;36665;51.786;21.594;2023-03-20T11:40:50;98084.54;;;15.62;66.27
50696;BME280;36665;51.786;21.594;2023-03-20T11:49:19;98146.21;;;15.78;66.21
50696;BME280;36665;51.786;21.594;2023-03-20T11:57:42;98054.52;;;15.54;66.23
50696;BME280;36665;51.786;21.594;2023-03-20T12:06:16;97903.40;;;15.17;66.10
50696;BME280;36665;51.786;21.594;2023-03-20T12:14:44;97830.94;;;14.99;66.11
50696;BME280;36665;51.786;21.594;2023-03-20T12:31:47;97719.27;;;14.72;65.83
50696;BME280;36665;51.786;21.594;2023-03-20T12:40:16;97668.39;;;14.60;65.76
50696;BME280;36665;51.786;21.594;2023-03-20T12:49:37;97766.64;;;14.84;65.79
50696;BME280;36665;51.786;21.594;2023-03-20T12:57:38;97826.32;;;14.97;65.70
50696;BME280;36665;51.786;21.594;2023-03-20T13:15:34;97605.67;;;14.44;65.69
50696;BME280;36665;51.786;21.594;2023-03-20T13:41:16;97310.05;;;13.70;65.58
50696;BME280;36665;51.786;21.594;2023-03-20T14:06:51;97393.55;;;13.92;65.34
50696;BME280;36665;51.786;21.594;2023-03-20T14:15:14;97422.40;;;14.00;65.29
50696;BME280;36665;51.786;21.594;2023-03-20T14:23:43;97336.48;;;13.78;65.11
50696;BME280;36665;51.786;21.594;2023-03-20T15:07:21;96950.02;;;12.82;65.00
50696;BME280;36665;51.786;21.594;2023-03-20T15:15:53;96870.73;;;12.62;64.92
50696;BME280;36665;51.786;21.594;2023-03-20T15:24:22;96809.81;;;12.47;64.79
50696;BME280;36665;51.786;21.594;2023-03-20T15:32:48;96760.34;;;12.34;64.89
50696;BME280;36665;51.786;21.594;2023-03-20T15:41:27;96700.34;;;12.18;64.66
50696;BME280;36665;51.786;21.594;2023-03-20T15:49:56;96648.63;;;12.06;64.83
50696;BME280;36665;51.786;21.594;2023-03-20T15:58:19;96607.48;;;11.97;64.53
50696;BME280;36665;51.786;21.594;2023-03-20T16:06:59;96570.23;;;11.87;64.57
50696;BME280;36665;51.786;21.594;2023-03-20T16:15:24;96507.38;;;11.71;64.61
50696;BME280;36665;51.786;21.594;2023-03-20T16:23:52;96418.88;;;11.48;64.40
50696;BME280;36665;51.786;21.594;2023-03-20T16:32:40;96319.41;;;11.23;64.23
50696;BME280;36665;51.786;21.594;2023-03-20T16:41:34;96217.99;;;10.97;64.40
50696;BME280;36665;51.786;21.594;2023-03-20T16:58:28;96026.27;;;10.48;64.40
50696;BME280;36665;51.786;21.594;2023-03-20T17:07:00;95960.60;;;10.31;64.22
50696;BME280;36665;51.786;21.594;2023-03-20T17:15:23;95924.08;;;10.23;64.18
50696;BME280;36665;51.786;21.594;2023-03-20T17:23:47;95925.65;;;10.23;64.17
50696;BME280;36665;51.786;21.594;2023-03-20T17:32:12;95909.46;;;10.19;64.28
50696;BME280;36665;51.786;21.594;2023-03-20T17:40:36;95856.08;;;10.05;64.07
50696;BME280;36665;51.786;21.594;2023-03-20T17:49:02;95776.40;;;9.84;64.08
50696;BME280;36665;51.786;21.594;2023-03-20T17:57:31;95709.67;;;9.66;64.14
50696;BME280;36665;51.786;21.594;2023-03-20T18:05:54;95683.95;;;9.59;63.86
50696;BME280;36665;51.786;21.594;2023-03-20T18:14:18;95680.40;;;9.60;63.94
50696;BME280;36665;51.786;21.594;2023-03-20T18:22:41;95671.10;;;9.57;64.04
50696;BME280;36665;51.786;21.594;2023-03-20T18:31:05;95639.05;;;9.49;63.83
50696;BME280;36665;51.786;21.594;2023-03-20T18:39:28;95601.76;;;9.40;63.93
50696;BME280;36665;51.786;21.594;2023-03-20T18:47:51;95591.33;;;9.36;63.95
50696;BME280;36665;51.786;21.594;2023-03-20T18:56:17;95600.46;;;9.39;63.98
50696;BME280;36665;51.786;21.594;2023-03-20T19:04:41;95594.98;;;9.38;63.96
50696;BME280;36665;51.786;21.594;2023-03-20T19:13:05;95563.84;;;9.30;64.11
50696;BME280;36665;51.786;21.594;2023-03-20T19:21:31;95523.52;;;9.18;64.00
50696;BME280;36665;51.786;21.594;2023-03-20T19:29:55;95486.98;;;9.10;64.06
50696;BME280;36665;51.786;21.594;2023-03-20T19:38:20;95449.51;;;8.99;64.23
50696;BME280;36665;51.786;21.594;2023-03-20T19:46:43;95398.44;;;8.85;64.04
50696;BME280;36665;51.786;21.594;2023-03-20T19:55:07;95334.80;;;8.69;64.15
50696;BME280;36665;51.786;21.594;2023-03-20T20:03:34;95248.46;;;8.46;64.09
50696;BME280;36665;51.786;21.594;2023-03-20T20:11:57;95159.34;;;8.23;63.87
50696;BME280;36665;51.786;21.594;2023-03-20T20:20:20;95092.46;;;8.06;63.72
50696;BME280;36665;51.786;21.594;2023-03-20T20:28:47;95026.96;;;7.89;63.73
50696;BME280;36665;51.786;21.594;2023-03-20T20:37:10;94993.02;;;7.80;63.94
50696;BME280;36665;51.786;21.594;2023-03-20T20:45:53;94979.70;;;7.76;63.82
50696;BME280;36665;51.786;21.594;2023-03-20T20:54:16;94964.85;;;7.73;63.92
50696;BME280;36665;51.786;21.594;2023-03-20T21:02:39;94943.02;;;7.68;63.87
50696;BME280;36665;51.786;21.594;2023-03-20T21:11:04;94944.14;;;7.68;64.10
50696;BME280;36665;51.786;21.594;2023-03-20T21:19:38;94919.67;;;7.61;64.09
50696;BME280;36665;51.786;21.594;2023-03-20T21:28:01;94868.00;;;7.46;64.00
50696;BME280;36665;51.786;21.594;2023-03-20T21:36:24;94822.54;;;7.35;64.08
50696;BME280;36665;51.786;21.594;2023-03-20T21:44:47;94822.46;;;7.34;64.13
50696;BME280;36665;51.786;21.594;2023-03-20T21:53:31;94857.71;;;7.44;64.13
50696;BME280;36665;51.786;21.594;2023-03-20T22:02:15;94881.33;;;7.50;64.05
50696;BME280;36665;51.786;21.594;2023-03-20T22:10:49;94860.89;;;7.45;64.15
50696;BME280;36665;51.786;21.594;2023-03-20T22:19:32;94855.98;;;7.44;64.20
50696;BME280;36665;51.786;21.594;2023-03-20T22:28:15;94877.06;;;7.49;64.12
50696;BME280;36665;51.786;21.594;2023-03-20T22:36:58;94917.83;;;7.60;64.20
50696;BME280;36665;51.786;21.594;2023-03-20T22:45:44;94961.30;;;7.71;64.62
50696;BME280;36665;51.786;21.594;2023-03-20T22:54:28;94973.54;;;7.74;64.50
50696;BME280;36665;51.786;21.594;2023-03-20T23:02:51;94998.55;;;7.81;64.37
50696;BME280;36665;51.786;21.594;2023-03-20T23:11:19;95048.84;;;7.92;64.58
50696;BME280;36665;51.786;21.594;2023-03-20T23:19:43;95050.00;;;7.93;64.76
50696;BME280;36665;51.786;21.594;2023-03-20T23:28:13;95013.06;;;7.83;64.88
50696;BME280;36665;51.786;21.594;2023-03-20T23:36:37;94993.69;;;7.78;64.61
50696;BME280;36665;51.786;21.594;2023-03-20T23:45:00;94993.53;;;7.77;64.67
50696;BME280;36665;51.786;21.594;2023-03-20T23:53:39;95006.05;;;7.80;64.82
